Time;durP1;ratioP1;P1;durP2;ratioP2;P2;SDS_P1;SDS_P2;PMS_P1;PMS_P2;Temp;Humidity;BMP_temperature;BMP_pressure;BME280_temperature;BME280_humidity;BME280_pressure;Samples;Min_cycle;Max_cycle;Signal;HPM_P1;HPM_P2
2023/10/03 00:00:33;;;;;;;57.42;23.95;;;;;;;16.82;100.00;101069.19;10473028;28;20049;-75
2023/10/03 00:05:35;;;;;;;55.38;24.95;;;;;;;16.72;100.00;101047.00;10481108;28;20036;-72
2023/10/03 00:10:38;;;;;;;52.63;25.73;;;;;;;16.71;100.00;101028.66;10443297;28;20040;-74
2023/10/03 00:15:43;;;;;;;59.00;25.25;;;;;;;16.68;100.00;101021.75;10483697;28;20051;-74
2023/10/03 00:20:44;;;;;;;56.40;26.42;;;;;;;16.14;100.00;100940.25;10480065;28;20548;-75
2023/10/03 00:25:44;;;;;;;66.85;28.67;;;;;;;16.61;100.00;101012.09;10481467;28;20040;-75
2023/10/03 00:30:45;;;;;;;54.05;26.67;;;;;;;16.59;100.00;100998.47;10467377;28;20032;-74
2023/10/03 00:35:47;;;;;;;67.38;29.65;;;;;;;16.57;100.00;100989.59;10481619;28;20066;-75
2023/10/03 00:40:49;;;;;;;54.97;27.27;;;;;;;16.49;100.00;100977.16;10480859;28;20040;-75
2023/10/03 00:45:49;;;;;;;62.88;27.45;;;;;;;16.53;100.00;100972.66;10480500;28;20044;-75
2023/10/03 00:50:55;;;;;;;70.40;30.35;;;;;;;16.54;100.00;100954.06;10479890;28;20041;-75
2023/10/03 00:55:59;;;;;;;59.43;27.43;;;;;;;16.49;100.00;100923.53;10480047;28;20300;-75
2023/10/03 01:01:00;;;;;;;58.75;25.92;;;;;;;16.48;100.00;100908.00;10457386;28;20048;-75
2023/10/03 01:06:08;;;;;;;64.22;29.05;;;;;;;16.47;100.00;100882.13;10471926;28;20037;-75
2023/10/03 01:11:15;;;;;;;56.33;26.15;;;;;;;16.46;100.00;100854.66;10465159;28;20127;-75
2023/10/03 01:16:27;;;;;;;49.75;23.90;;;;;;;16.45;100.00;100834.34;10477059;28;20060;-75
2023/10/03 01:21:27;;;;;;;52.22;24.95;;;;;;;16.44;100.00;100788.25;10479406;28;20045;-73
2023/10/03 01:26:28;;;;;;;50.13;21.98;;;;;;;16.47;100.00;100789.59;10478004;28;20037;-75
2023/10/03 01:31:29;;;;;;;43.88;20.77;;;;;;;16.48;100.00;100780.97;10475337;28;20045;-74
2023/10/03 01:36:29;;;;;;;46.95;22.17;;;;;;;16.47;100.00;100807.09;10482096;28;20044;-75
2023/10/03 01:41:30;;;;;;;45.17;19.95;;;;;;;16.43;100.00;100810.78;10476312;28;20037;-74
2023/10/03 01:46:30;;;;;;;40.35;19.83;;;;;;;16.45;100.00;100783.50;10482606;28;20032;-75
2023/10/03 01:51:31;;;;;;;40.17;17.48;;;;;;;16.39;100.00;100754.13;10454014;28;20037;-74
2023/10/03 01:56:34;;;;;;;41.50;18.33;;;;;;;16.36;100.00;100747.22;10474239;28;20045;-74
2023/10/03 02:01:37;;;;;;;35.50;15.52;;;;;;;16.30;100.00;100713.13;10481200;28;20056;-75
2023/10/03 02:06:39;;;;;;;36.42;15.65;;;;;;;16.31;100.00;100700.06;10473796;28;20075;-75
2023/10/03 02:11:39;;;;;;;36.03;17.20;;;;;;;16.30;100.00;100687.28;10461619;28;20036;-75
2023/10/03 02:16:46;;;;;;;35.72;15.15;;;;;;;16.30;100.00;100659.53;10473187;28;20036;-74
2023/10/03 02:21:46;;;;;;;39.47;17.15;;;;;;;16.32;100.00;100640.59;10480381;28;20036;-74
2023/10/03 02:26:47;;;;;;;33.40;15.23;;;;;;;16.33;100.00;100637.53;10476205;28;20044;-72
2023/10/03 02:31:47;;;;;;;36.50;16.08;;;;;;;16.31;100.00;100614.78;10478256;28;20047;-74
2023/10/03 02:36:48;;;;;;;32.58;14.30;;;;;;;16.36;100.00;100626.94;10477566;28;20041;-74
2023/10/03 02:41:49;;;;;;;29.88;14.52;;;;;;;16.36;100.00;100577.75;10476237;28;20039;-75
2023/10/03 02:46:50;;;;;;;34.15;14.48;;;;;;;16.42;100.00;100553.50;10483555;28;20067;-74
2023/10/03 02:51:50;;;;;;;34.78;15.25;;;;;;;16.46;100.00;100537.88;10483025;28;20048;-74
2023/10/03 02:56:51;;;;;;;32.58;14.18;;;;;;;16.51;100.00;100540.56;10487707;28;20683;-73
2023/10/03 03:01:52;;;;;;;28.02;12.85;;;;;;;16.54;100.00;100510.22;10483084;28;20511;-74
2023/10/03 03:06:54;;;;;;;30.55;12.95;;;;;;;16.60;100.00;100530.44;10478799;28;20041;-74
2023/10/03 03:11:55;;;;;;;28.35;13.15;;;;;;;16.68;100.00;100532.53;10478568;28;20106;-74
2023/10/03 03:16:56;;;;;;;29.25;13.68;;;;;;;16.75;100.00;100524.59;10477606;28;20040;-75
2023/10/03 03:21:57;;;;;;;35.63;15.23;;;;;;;16.77;100.00;100509.59;10487673;28;20041;-73
2023/10/03 03:26:58;;;;;;;29.17;13.27;;;;;;;16.75;100.00;100507.91;10482165;28;20040;-74
2023/10/03 03:31:59;;;;;;;34.83;14.00;;;;;;;16.84;100.00;100512.81;10486696;28;20039;-73
2023/10/03 03:37:20;;;;;;;31.85;14.68;;;;;;;16.96;100.00;100496.47;10482502;28;20448;-75
2023/10/03 03:42:22;;;;;;;35.35;15.93;;;;;;;17.02;100.00;100492.47;10474066;28;20036;-76
2023/10/03 03:47:22;;;;;;;29.73;14.20;;;;;;;17.11;100.00;100493.38;10476455;28;20051;-72
2023/10/03 03:52:23;;;;;;;32.97;13.45;;;;;;;17.22;100.00;100485.69;10479800;28;20036;-74
2023/10/03 03:57:23;;;;;;;37.55;15.52;;;;;;;17.36;100.00;100466.19;10485655;28;20049;-72
2023/10/03 04:02:24;;;;;;;32.75;13.27;;;;;;;17.43;100.00;100463.84;10463163;28;20124;-72
2023/10/03 04:07:24;;;;;;;32.17;14.65;;;;;;;17.43;100.00;100477.75;10484364;28;20036;-71
2023/10/03 04:12:25;;;;;;;28.13;11.85;;;;;;;17.41;100.00;100468.88;10478273;28;20071;-70
2023/10/03 04:17:27;;;;;;;29.02;13.35;;;;;;;17.49;100.00;100448.69;10466827;28;20067;-75
2023/10/03 04:22:30;;;;;;;30.73;13.48;;;;;;;17.46;100.00;100432.59;10479833;28;20036;-74
2023/10/03 04:27:32;;;;;;;30.90;13.25;;;;;;;17.43;100.00;100419.31;10483065;28;20029;-73
2023/10/03 04:32:32;;;;;;;33.45;14.50;;;;;;;17.42;100.00;100426.00;10480467;28;20036;-73
2023/10/03 04:37:34;;;;;;;26.75;11.88;;;;;;;17.42;100.00;100426.00;10484032;28;20064;-75
2023/10/03 04:42:35;;;;;;;31.65;14.50;;;;;;;17.44;100.00;100417.34;10478321;28;20044;-74
2023/10/03 04:47:41;;;;;;;28.88;12.57;;;;;;;17.44;100.00;100412.59;10483247;28;20036;-77
2023/10/03 04:52:41;;;;;;;28.00;11.90;;;;;;;17.46;100.00;100412.28;10477200;28;20043;-74
2023/10/03 04:57:46;;;;;;;34.15;14.15;;;;;;;17.46;100.00;100413.09;10484386;28;20136;-72
2023/10/03 05:02:51;;;;;;;30.38;13.93;;;;;;;17.51;100.00;100417.75;10476463;28;20063;-73
2023/10/03 05:07:52;;;;;;;26.20;12.25;;;;;;;17.57;100.00;100422.06;10477830;28;20040;-74
2023/10/03 05:12:53;;;;;;;28.42;12.23;;;;;;;17.72;100.00;100429.25;10477124;28;20040;-73
2023/10/03 05:17:56;;;;;;;26.00;13.10;;;;;;;17.84;100.00;100424.00;10477645;28;20033;-74
2023/10/03 05:22:57;;;;;;;28.17;11.18;;;;;;;17.91;100.00;100421.56;10478540;28;20045;-73
2023/10/03 05:27:58;;;;;;;26.00;11.23;;;;;;;17.90;100.00;100424.66;10482617;28;20068;-74
2023/10/03 05:32:59;;;;;;;29.02;11.52;;;;;;;17.96;100.00;100426.19;10457865;28;20041;-73
2023/10/03 05:37:59;;;;;;;29.48;11.13;;;;;;;17.98;100.00;100428.66;10483959;28;20528;-73
2023/10/03 05:43:01;;;;;;;33.55;12.52;;;;;;;17.99;100.00;100433.13;10449899;28;20038;-74
2023/10/03 05:48:04;;;;;;;25.52;9.82;;;;;;;18.03;100.00;100432.16;10478798;28;20037;-72
2023/10/03 05:53:08;;;;;;;27.60;11.73;;;;;;;18.04;100.00;100413.50;10474993;28;20091;-71
2023/10/03 05:58:10;;;;;;;28.88;11.45;;;;;;;17.58;100.00;100356.91;10481225;28;20043;-73
2023/10/03 06:03:10;;;;;;;26.33;10.70;;;;;;;18.18;100.00;100432.94;10476795;28;20033;-72
2023/10/03 06:08:12;;;;;;;30.35;12.63;;;;;;;18.24;100.00;100429.69;10480225;28;20036;-75
2023/10/03 06:13:13;;;;;;;25.05;11.50;;;;;;;18.31;100.00;100441.25;10471641;28;20048;-73
2023/10/03 06:18:13;;;;;;;31.65;11.07;;;;;;;18.38;100.00;100456.69;10461333;28;20033;-71
2023/10/03 06:23:14;;;;;;;23.23;10.23;;;;;;;18.43;100.00;100448.19;10477007;28;20033;-73
2023/10/03 06:28:14;;;;;;;25.75;10.93;;;;;;;18.49;100.00;100458.88;10478018;28;20041;-72
2023/10/03 06:33:15;;;;;;;26.35;11.35;;;;;;;18.54;100.00;100461.56;10476466;28;20087;-71
2023/10/03 06:38:19;;;;;;;28.40;12.18;;;;;;;18.59;100.00;100463.38;10472854;28;20091;-72
2023/10/03 06:43:20;;;;;;;23.40;9.65;;;;;;;18.64;100.00;100470.78;10478564;28;20108;-70
2023/10/03 06:48:23;;;;;;;26.92;8.32;;;;;;;18.64;100.00;100481.94;10474424;28;20045;-71
2023/10/03 06:53:24;;;;;;;22.45;9.60;;;;;;;18.72;100.00;100475.59;10479743;28;20094;-72
2023/10/03 06:58:26;;;;;;;16.00;7.75;;;;;;;18.68;100.00;100499.69;10473521;28;20107;-71
2023/10/03 07:03:26;;;;;;;17.33;7.65;;;;;;;18.69;100.00;100496.59;10479923;28;20037;-74
2023/10/03 07:08:27;;;;;;;20.67;6.95;;;;;;;18.67;100.00;100504.44;10464552;28;20041;-73
2023/10/03 07:13:27;;;;;;;16.67;6.88;;;;;;;18.56;100.00;100514.19;10479690;28;20040;-73
2023/10/03 07:18:28;;;;;;;16.00;6.25;;;;;;;18.55;100.00;100518.94;10460106;28;20037;-73
2023/10/03 07:23:29;;;;;;;16.48;5.93;;;;;;;18.57;100.00;100524.22;10453003;28;20064;-75
2023/10/03 07:28:29;;;;;;;13.70;5.53;;;;;;;18.68;100.00;100528.38;10445991;28;20105;-76
2023/10/03 07:33:31;;;;;;;9.50;3.78;;;;;;;18.60;100.00;100528.31;10435003;28;20049;-73
2023/10/03 07:38:31;;;;;;;10.65;3.58;;;;;;;18.31;100.00;100547.13;10450738;28;20116;-73
2023/10/03 07:43:32;;;;;;;12.05;3.00;;;;;;;18.00;100.00;100532.25;10459392;28;20455;-73
2023/10/03 07:48:32;;;;;;;14.20;2.95;;;;;;;18.18;100.00;100577.81;10455481;28;20067;-69
2023/10/03 07:53:36;;;;;;;16.33;3.53;;;;;;;18.15;100.00;100577.31;10441579;28;20060;-72
2023/10/03 07:58:37;;;;;;;10.55;3.15;;;;;;;18.11;100.00;100581.03;10460987;28;20041;-71
2023/10/03 08:03:37;;;;;;;11.20;4.03;;;;;;;18.08;100.00;100581.63;10482817;28;20035;-73
2023/10/03 08:08:38;;;;;;;15.85;3.97;;;;;;;17.95;100.00;100600.84;10481360;28;20048;-73
2023/10/03 08:13:41;;;;;;;15.20;4.68;;;;;;;17.50;100.00;100622.03;10478239;28;20037;-76
2023/10/03 08:18:46;;;;;;;15.60;4.93;;;;;;;17.03;100.00;100615.66;10486216;28;20028;-76
2023/10/03 08:23:51;;;;;;;15.50;6.20;;;;;;;17.02;100.00;100666.84;10478436;28;20048;-73
2023/10/03 08:29:04;;;;;;;16.40;6.80;;;;;;;16.98;100.00;100672.19;10479157;28;20041;-75
2023/10/03 08:34:10;;;;;;;14.25;5.90;;;;;;;16.93;100.00;100680.63;10483569;28;20041;-76
2023/10/03 08:39:14;;;;;;;18.27;6.65;;;;;;;16.91;100.00;100699.56;10470750;28;20500;-74
2023/10/03 08:44:14;;;;;;;26.65;6.82;;;;;;;16.26;100.00;100639.84;10465572;28;20555;-76
2023/10/03 08:49:17;;;;;;;19.98;5.32;;;;;;;16.51;100.00;100735.09;10475874;28;20295;-74
2023/10/03 08:54:18;;;;;;;9.75;3.10;;;;;;;16.31;100.00;100756.47;10467329;28;20101;-75
2023/10/03 08:59:19;;;;;;;7.60;1.50;;;;;;;15.99;100.00;100784.84;10453799;28;20387;-76
2023/10/03 09:04:20;;;;;;;4.60;1.55;;;;;;;15.83;100.00;100786.13;10453229;28;20037;-75
2023/10/03 09:09:21;;;;;;;5.63;1.60;;;;;;;15.80;100.00;100829.16;10454072;28;20041;-73
2023/10/03 09:14:21;;;;;;;4.25;1.08;;;;;;;15.82;100.00;100815.81;10447995;28;20044;-77
2023/10/03 09:19:25;;;;;;;5.82;1.02;;;;;;;15.89;100.00;100830.19;10452049;28;20044;-76
2023/10/03 09:24:25;;;;;;;4.53;0.93;;;;;;;15.88;100.00;100836.88;10448441;28;20049;-73
2023/10/03 09:29:32;;;;;;;3.15;0.63;;;;;;;16.12;100.00;100849.97;10443705;28;20041;-73
2023/10/03 09:34:32;;;;;;;;;;;;;;;15.81;100.00;100883.56;10469770;28;20079;-72
2023/10/03 09:39:39;;;;;;;4.18;0.85;;;;;;;15.37;100.00;100901.03;10470506;28;19920;-71
2023/10/03 09:44:40;;;;;;;3.15;0.70;;;;;;;15.28;100.00;100922.16;10457832;28;20051;-71
2023/10/03 09:49:40;;;;;;;9.07;1.05;;;;;;;15.40;100.00;100938.47;10476982;28;20500;-71
2023/10/03 09:54:41;;;;;;;5.43;0.80;;;;;;;15.49;100.00;100950.63;10478531;28;20110;-72
2023/10/03 09:59:48;;;;;;;2.55;0.50;;;;;;;15.52;100.00;100967.53;10477595;28;20048;-71
2023/10/03 10:04:50;;;;;;;4.70;0.88;;;;;;;15.38;100.00;100968.44;10469266;28;20405;-71
2023/10/03 10:10:01;;;;;;;2.83;0.32;;;;;;;15.28;100.00;100992.34;10476060;28;20060;-74
2023/10/03 10:15:13;;;;;;;3.10;0.82;;;;;;;15.38;100.00;101010.03;10460872;28;20124;-73
2023/10/03 10:20:17;;;;;;;1.17;0.40;;;;;;;15.39;100.00;101012.53;10479166;28;20123;-73
2023/10/03 10:25:27;;;;;;;7.22;0.40;;;;;;;15.39;100.00;101045.81;10475516;28;20107;-74
2023/10/03 10:30:28;;;;;;;1.85;0.30;;;;;;;15.21;100.00;101061.13;10479815;28;20041;-73
2023/10/03 10:36:03;;;;;;;0.98;0.20;;;;;;;15.06;100.00;101084.19;10444603;28;20045;-75
2023/10/03 10:41:36;;;;;;;1.10;0.20;;;;;;;14.82;100.00;101111.66;10438464;28;20051;-71
2023/10/03 10:46:39;;;;;;;2.47;0.40;;;;;;;14.77;100.00;101099.72;10441089;28;20511;-72
2023/10/03 10:51:39;;;;;;;2.92;0.25;;;;;;;14.80;100.00;101118.56;10439779;28;20053;-69
2023/10/03 10:56:40;;;;;;;2.25;1.33;;;;;;;14.86;100.00;101118.31;10422490;28;20072;-72
2023/10/03 11:01:41;;;;;;;6.00;0.55;;;;;;;15.02;100.00;101129.38;10441626;28;20072;-73
2023/10/03 11:06:48;;;;;;;5.30;0.50;;;;;;;15.05;100.00;101120.53;10442258;28;20096;-74
2023/10/03 11:11:51;;;;;;;3.42;0.50;;;;;;;15.24;100.00;101118.00;10445302;28;20052;-74
2023/10/03 11:16:51;;;;;;;4.43;0.50;;;;;;;15.24;100.00;101138.25;10446822;28;20045;-74
2023/10/03 11:21:52;;;;;;;4.63;0.55;;;;;;;15.54;100.00;101139.28;10447993;28;20037;-75
2023/10/03 11:26:53;;;;;;;5.97;1.00;;;;;;;15.65;100.00;101138.16;10430241;28;20653;-70
2023/10/03 11:31:53;;;;;;;3.15;0.88;;;;;;;15.94;100.00;101137.53;10448191;28;20083;-74
2023/10/03 11:36:54;;;;;;;8.38;1.15;;;;;;;16.14;100.00;101144.94;10468671;28;20071;-74
2023/10/03 11:41:56;;;;;;;5.07;1.48;;;;;;;16.27;100.00;101154.59;10479296;28;20493;-74
2023/10/03 11:46:57;;;;;;;4.05;1.20;;;;;;;16.38;100.00;101147.03;10486216;28;20037;-72
2023/10/03 11:51:57;;;;;;;3.80;1.38;;;;;;;16.73;100.00;101132.91;10479351;28;20041;-74
2023/10/03 11:57:00;;;;;;;9.52;1.70;;;;;;;16.65;100.00;101116.84;10475178;28;20048;-77
2023/10/03 12:02:01;;;;;;;5.32;1.50;;;;;;;16.47;100.00;101145.31;10476286;28;20101;-69
2023/10/03 12:07:01;;;;;;;7.25;1.95;;;;;;;16.21;100.00;101176.03;10465738;28;20032;-70
2023/10/03 12:12:02;;;;;;;5.88;1.80;;;;;;;16.16;100.00;101181.59;10482022;28;20039;-68
2023/10/03 12:17:02;;;;;;;9.38;2.15;;;;;;;16.39;100.00;101188.44;10478359;28;20082;-71
2023/10/03 12:22:03;;;;;;;2.80;1.20;;;;;;;16.52;100.00;101181.41;10483101;28;20421;-80
2023/10/03 12:27:05;;;;;;;6.88;1.35;;;;;;;16.55;100.00;101222.53;10480842;28;20048;-74
2023/10/03 12:32:05;;;;;;;8.25;1.25;;;;;;;16.46;100.00;101227.84;10466116;28;20538;-78
2023/10/03 12:37:11;;;;;;;9.77;2.05;;;;;;;16.14;100.00;101225.47;10478842;28;20049;-75
2023/10/03 12:42:12;;;;;;;5.38;1.60;;;;;;;15.46;100.00;101140.72;10484340;28;20044;-74
2023/10/03 12:47:14;;;;;;;4.43;1.33;;;;;;;15.77;100.00;101251.66;10478037;28;20489;-71
2023/10/03 12:52:14;;;;;;;4.50;1.85;;;;;;;15.26;100.00;101276.66;10484008;28;20044;-71
2023/10/03 12:57:15;;;;;;;5.70;1.58;;;;;;;14.75;100.00;101293.19;10477240;28;20037;-74
2023/10/03 13:02:17;;;;;;;8.45;1.75;;;;;;;14.78;100.00;101293.47;10484464;28;20094;-77
2023/10/03 13:07:20;;;;;;;4.70;1.42;;;;;;;14.80;100.00;101307.91;10477201;28;20492;-75
2023/10/03 13:12:21;;;;;;;5.57;1.42;;;;;;;14.96;100.00;101311.53;10477558;28;20044;-85
2023/10/03 13:17:22;;;;;;;8.05;1.65;;;;;;;15.11;100.00;101328.22;10474148;28;20037;-75
2023/10/03 13:22:25;;;;;;;5.95;1.10;;;;;;;15.31;100.00;101329.34;10481975;28;20070;-74
2023/10/03 13:27:26;;;;;;;7.20;1.20;;;;;;;15.73;100.00;101331.09;10477276;28;20485;-74
2023/10/03 13:32:27;;;;;;;4.60;1.52;;;;;;;16.07;100.00;101319.38;10478797;28;20048;-75
2023/10/03 13:37:29;;;;;;;7.38;1.70;;;;;;;16.19;100.00;101328.25;10459618;28;20046;-76
2023/10/03 13:42:29;;;;;;;8.88;1.23;;;;;;;16.34;100.00;101352.38;10451772;28;20056;-75
2023/10/03 13:47:31;;;;;;;8.20;1.35;;;;;;;16.39;100.00;101346.84;10446913;28;20148;-75
2023/10/03 13:52:31;;;;;;;5.38;1.33;;;;;;;17.17;100.00;101350.13;10440619;28;20033;-74
2023/10/03 13:57:32;;;;;;;6.47;1.50;;;;;;;18.32;100.00;101337.50;10455201;28;20476;-75
2023/10/03 14:02:34;;;;;;;6.60;3.15;;;;;;;17.84;100.00;101340.22;10449498;28;20052;-74
2023/10/03 14:07:34;;;;;;;6.72;1.25;;;;;;;17.77;100.00;101356.38;10440152;28;20037;-73
2023/10/03 14:12:35;;;;;;;7.90;1.58;;;;;;;18.76;100.00;101353.16;10433954;28;20042;-73
2023/10/03 14:17:35;;;;;;;6.15;1.38;;;;;;;19.12;100.00;101360.25;10443003;28;20109;-75
2023/10/03 14:22:37;;;;;;;7.80;1.58;;;;;;;19.09;100.00;101356.09;10449512;28;20038;-74
2023/10/03 14:27:38;;;;;;;10.05;1.70;;;;;;;19.61;100.00;101374.91;10445914;28;20033;-74
2023/10/03 14:32:40;;;;;;;4.60;1.15;;;;;;;19.34;100.00;101379.22;10453307;28;20063;-75
2023/10/03 14:37:41;;;;;;;10.65;1.45;;;;;;;18.15;100.00;101401.22;10446011;28;20036;-76
2023/10/03 14:42:45;;;;;;;6.32;1.40;;;;;;;16.88;100.00;101409.25;10431988;28;20055;-71
2023/10/03 14:47:45;;;;;;;8.73;1.75;;;;;;;16.59;100.00;101411.81;10451919;28;20418;-71
2023/10/03 14:52:46;;;;;;;7.32;1.83;;;;;;;17.84;100.00;101422.91;10475802;28;20041;-71
2023/10/03 14:57:46;;;;;;;5.38;1.33;;;;;;;18.29;100.00;101413.38;10477532;28;20044;-76
2023/10/03 15:02:47;;;;;;;10.32;1.65;;;;;;;18.09;100.00;101424.69;10459166;28;20044;-69
2023/10/03 15:07:47;;;;;;;7.05;1.30;;;;;;;17.14;100.00;101426.66;10451003;28;20059;-70
2023/10/03 15:12:48;;;;;;;6.68;1.52;;;;;;;16.67;100.00;101444.59;10445867;28;20052;-64
2023/10/03 15:17:49;;;;;;;4.70;1.10;;;;;;;16.43;100.00;101455.47;10442441;28;20051;-69
2023/10/03 15:22:53;;;;;;;7.35;1.10;;;;;;;16.60;100.00;101442.09;10449278;28;20095;-71
2023/10/03 15:27:54;;;;;;;6.20;0.90;;;;;;;16.68;100.00;101462.91;10449356;28;20045;-72
2023/10/03 15:32:58;;;;;;;4.35;0.90;;;;;;;16.34;100.00;101472.69;10444474;28;20124;-72
2023/10/03 15:37:59;;;;;;;7.95;1.30;;;;;;;15.92;100.00;101500.75;10442115;28;20037;-70
2023/10/03 15:43:00;;;;;;;5.22;1.40;;;;;;;15.70;100.00;101504.53;10444604;28;20540;-68
2023/10/03 15:48:04;;;;;;;5.85;1.10;;;;;;;15.44;100.00;101523.06;10441119;28;20038;-69
2023/10/03 15:53:05;;;;;;;5.10;1.73;;;;;;;15.37;100.00;101539.09;10449362;28;20081;-70
2023/10/03 15:58:06;;;;;;;4.90;1.10;;;;;;;15.14;100.00;101530.09;10457914;28;20124;-71
2023/10/03 16:03:07;;;;;;;8.32;1.77;;;;;;;15.12;100.00;101543.41;10476417;28;20044;-70
2023/10/03 16:08:07;;;;;;;9.88;2.08;;;;;;;15.08;100.00;101560.88;10459626;28;20075;-71
2023/10/03 16:13:10;;;;;;;15.45;2.58;;;;;;;14.88;100.00;101556.00;10474317;28;20036;-71
2023/10/03 16:18:11;;;;;;;11.60;3.00;;;;;;;14.78;100.00;101564.25;10480256;28;20037;-71
2023/10/03 16:23:12;;;;;;;10.15;3.03;;;;;;;14.69;100.00;101575.81;10482280;28;20397;-71
2023/10/03 16:28:13;;;;;;;3.67;1.52;;;;;;;14.62;100.00;101583.53;10465986;28;20108;-70
2023/10/03 16:33:14;;;;;;;12.98;1.95;;;;;;;14.57;100.00;101585.44;10480311;28;20044;-70
2023/10/03 16:38:14;;;;;;;6.32;1.95;;;;;;;14.48;100.00;101582.28;10481445;28;20045;-71
2023/10/03 16:43:15;;;;;;;8.13;2.30;;;;;;;14.50;100.00;101614.16;10465453;28;20033;-71
2023/10/03 16:48:15;;;;;;;6.53;1.80;;;;;;;14.47;100.00;101617.47;10474929;28;20044;-70
2023/10/03 16:53:16;;;;;;;7.93;1.77;;;;;;;14.33;100.00;101636.44;10487416;28;20047;-76
2023/10/03 16:58:16;;;;;;;11.70;1.70;;;;;;;14.24;100.00;101645.47;10478092;28;20037;-71
2023/10/03 17:03:17;;;;;;;5.32;1.45;;;;;;;14.28;100.00;101655.78;10481805;28;20049;-70
2023/10/03 17:08:17;;;;;;;5.95;2.30;;;;;;;14.33;100.00;101652.22;10483175;28;20037;-71
2023/10/03 17:13:18;;;;;;;11.02;2.63;;;;;;;14.29;100.00;101664.91;10485915;28;20037;-72
2023/10/03 17:18:19;;;;;;;6.43;1.83;;;;;;;13.99;100.00;101673.69;10479672;28;20044;-70
2023/10/03 17:23:20;;;;;;;9.73;2.03;;;;;;;13.79;100.00;101680.66;10478060;28;20049;-71
2023/10/03 17:28:20;;;;;;;8.30;1.58;;;;;;;13.69;100.00;101672.22;10480158;28;20090;-71
2023/10/03 17:33:21;;;;;;;7.95;2.03;;;;;;;13.73;100.00;101682.50;10471953;28;20090;-71
2023/10/03 17:38:21;;;;;;;13.93;2.45;;;;;;;13.68;100.00;101696.28;10435452;28;20111;-70
2023/10/03 17:43:22;;;;;;;9.65;1.83;;;;;;;13.67;100.00;101721.44;10470476;28;20044;-75
2023/10/03 17:48:23;;;;;;;8.95;2.25;;;;;;;13.59;100.00;101719.09;10457575;28;20041;-76
2023/10/03 17:53:24;;;;;;;9.00;1.70;;;;;;;13.64;100.00;101735.75;10472807;28;20053;-75
2023/10/03 17:58:24;;;;;;;10.82;2.08;;;;;;;13.61;100.00;101745.41;10469555;28;20057;-76
2023/10/03 18:03:27;;;;;;;9.80;2.05;;;;;;;13.58;100.00;101761.69;10455608;28;20144;-75
2023/10/03 18:08:29;;;;;;;9.90;1.65;;;;;;;13.51;100.00;101768.22;10480797;28;20401;-77
2023/10/03 18:13:29;;;;;;;5.75;1.95;;;;;;;13.42;100.00;101785.50;10479985;28;20461;-76
2023/10/03 18:18:30;;;;;;;7.70;1.58;;;;;;;13.28;100.00;101790.50;10459947;28;20048;-78
2023/10/03 18:23:30;;;;;;;5.97;1.70;;;;;;;13.12;100.00;101786.59;10478703;28;20038;-75
2023/10/03 18:28:31;;;;;;;5.78;1.40;;;;;;;13.04;100.00;101785.09;10461230;28;20033;-79
2023/10/03 18:33:31;;;;;;;8.48;1.75;;;;;;;12.99;100.00;101806.28;10455226;28;20041;-76
2023/10/03 18:38:32;;;;;;;5.78;1.25;;;;;;;12.94;100.00;101815.31;10475293;28;20045;-77
2023/10/03 18:43:33;;;;;;;6.30;1.60;;;;;;;12.88;100.00;101816.31;10473989;28;20048;-76
2023/10/03 18:48:36;;;;;;;4.55;1.20;;;;;;;12.82;100.00;101820.91;10466513;28;20404;-77
2023/10/03 18:53:38;;;;;;;10.80;1.50;;;;;;;12.75;100.00;101844.22;10456513;28;20397;-77
2023/10/03 18:58:39;;;;;;;10.38;1.80;;;;;;;12.65;100.00;101842.06;10463228;28;20033;-78
2023/10/03 19:03:40;;;;;;;9.20;2.03;;;;;;;12.56;100.00;101854.59;10462308;28;20041;-76
2023/10/03 19:08:41;;;;;;;9.20;1.83;;;;;;;12.50;100.00;101851.72;10458046;28;20093;-76
2023/10/03 19:13:41;;;;;;;12.93;2.10;;;;;;;12.41;100.00;101863.41;10476734;28;20045;-76
2023/10/03 19:18:42;;;;;;;7.80;1.92;;;;;;;12.35;100.00;101869.91;10473648;28;20036;-76
2023/10/03 19:23:43;;;;;;;7.65;2.03;;;;;;;12.30;100.00;101862.34;10473760;28;20033;-75
2023/10/03 19:28:44;;;;;;;12.07;2.30;;;;;;;12.25;100.00;101860.28;10478929;28;20076;-68
2023/10/03 19:33:44;;;;;;;11.20;2.40;;;;;;;12.25;100.00;101876.03;10481937;28;21081;-76
2023/10/03 19:38:45;;;;;;;4.72;1.40;;;;;;;12.24;100.00;101883.47;10473377;28;20044;-76
2023/10/03 19:43:46;;;;;;;7.82;1.30;;;;;;;12.21;100.00;101881.19;10466202;28;20045;-77
2023/10/03 19:48:46;;;;;;;8.02;1.85;;;;;;;12.21;100.00;101874.81;10477819;28;20044;-76
2023/10/03 19:53:48;;;;;;;8.98;1.75;;;;;;;12.20;100.00;101885.03;10459725;28;20036;-76
2023/10/03 19:58:51;;;;;;;7.45;1.65;;;;;;;12.12;100.00;101882.63;10482207;28;20434;-75
2023/10/03 20:03:51;;;;;;;6.53;1.45;;;;;;;12.15;100.00;101884.91;10478873;28;20037;-76
2023/10/03 20:08:53;;;;;;;11.88;1.77;;;;;;;12.23;100.00;101890.06;10474592;28;20060;-75
2023/10/03 20:13:53;;;;;;;13.02;1.67;;;;;;;12.21;100.00;101897.75;10476858;28;20037;-76
2023/10/03 20:18:54;;;;;;;7.82;2.25;;;;;;;12.21;100.00;101903.25;10469289;28;20046;-75
2023/10/03 20:23:57;;;;;;;4.05;1.58;;;;;;;12.28;100.00;101908.69;10475151;28;20041;-75
2023/10/03 20:29:00;;;;;;;6.85;1.85;;;;;;;12.38;100.00;101919.97;10445789;28;20091;-76
2023/10/03 20:34:01;;;;;;;8.25;1.67;;;;;;;12.48;100.00;101924.88;10443463;28;20446;-75
2023/10/03 20:39:01;;;;;;;6.05;1.95;;;;;;;12.54;100.00;101934.94;10443917;28;20052;-75
2023/10/03 20:44:02;;;;;;;10.50;2.42;;;;;;;12.48;100.00;101935.91;10459172;28;20040;-74
2023/10/03 20:49:02;;;;;;;5.88;1.77;;;;;;;12.37;100.00;101934.00;10487472;28;20040;-74
2023/10/03 20:54:03;;;;;;;8.02;1.70;;;;;;;12.28;100.00;101939.06;10482863;28;20045;-77
2023/10/03 20:59:04;;;;;;;4.80;1.50;;;;;;;12.20;100.00;101945.78;10481876;28;20437;-76
2023/10/03 21:04:05;;;;;;;10.13;2.40;;;;;;;12.26;100.00;101944.81;10481608;28;20048;-77
2023/10/03 21:09:20;;;;;;;6.50;1.73;;;;;;;12.30;100.00;101951.53;10482829;28;20106;-68
2023/10/03 21:14:21;;;;;;;7.78;1.30;;;;;;;12.48;100.00;101963.53;10481345;28;20041;-76
2023/10/03 21:19:21;;;;;;;5.65;1.58;;;;;;;12.43;100.00;101963.44;10481580;28;20052;-74
2023/10/03 21:24:22;;;;;;;10.45;1.70;;;;;;;12.42;100.00;101981.06;10485068;28;20527;-77
2023/10/03 21:29:24;;;;;;;5.32;1.30;;;;;;;12.34;100.00;101962.09;10478050;28;20040;-78
2023/10/03 21:34:25;;;;;;;8.25;2.33;;;;;;;12.34;100.00;101971.25;10477904;28;20094;-78
2023/10/03 21:39:26;;;;;;;7.00;1.88;;;;;;;12.28;100.00;101981.31;10478471;28;20488;-80
2023/10/03 21:44:26;;;;;;;7.95;1.98;;;;;;;12.15;100.00;101981.50;10464152;28;20044;-79
2023/10/03 21:49:27;;;;;;;5.80;1.00;;;;;;;12.04;100.00;101971.31;10472318;28;20068;-75
2023/10/03 21:54:27;;;;;;;5.55;1.60;;;;;;;12.03;100.00;101958.56;10463973;28;20049;-76
2023/10/03 21:59:28;;;;;;;7.03;1.40;;;;;;;12.06;100.00;101989.31;10480233;28;20048;-79
2023/10/03 22:04:28;;;;;;;4.95;1.58;;;;;;;12.13;100.00;102000.25;10458090;28;20084;-77
2023/10/03 22:09:29;;;;;;;7.50;1.40;;;;;;;12.19;100.00;102007.56;10454193;28;20038;-77
2023/10/03 22:14:29;;;;;;;3.97;1.33;;;;;;;12.19;100.00;102004.81;10457083;28;20049;-68
2023/10/03 22:19:30;;;;;;;7.85;1.40;;;;;;;12.18;100.00;102014.19;10458856;28;20056;-76
2023/10/03 22:24:30;;;;;;;8.20;1.20;;;;;;;12.15;100.00;102002.78;10466440;28;20045;-78
2023/10/03 22:29:31;;;;;;;5.30;1.10;;;;;;;11.99;100.00;101998.75;10449847;28;20029;-79
2023/10/03 22:34:32;;;;;;;4.97;1.38;;;;;;;11.85;100.00;102003.63;10464427;28;20044;-79
2023/10/03 22:39:33;;;;;;;9.57;1.65;;;;;;;11.81;100.00;102018.97;10467798;28;20037;-79